Fort Myers Beach, Florida
Current Conditions -  °F | °C
As of 1:53 PM on Tuesday 21 Oct 2014 (Local Time) from KFMY Reporting Station
Clear Clear  
Wind Chill: 80°   Ceiling: Unl
Heat Index: 84°   Visibility: 10mi
Dew Point: 71°   Wind: 10mph
Humidity: 74%   Direction: 210°SSW
Pressure: 29.93"   Gusts: NA
Location:  26.45°N, 81.94°W
Report Text: KFMY 211753Z 21009KT 10SM CLR 27/22 A2993 RMK AO2 SLP138 T02670217 10283 20228 56010
Loading
Personal Weather Stations






























Interactive Weather Map New forecast layout! Learn more

10-Day Weather Forecast

Advertisements
Track Severe Weather on mobile